sensor_id;sensor_type;location;lat;lon;timestamp;P1;durP1;ratioP1;P2;durP2;ratioP2
71769;SDS011;66386;52.122;5.420;2024-01-25T00:01:45;17.88;;;1.58;;
71769;SDS011;66386;52.122;5.420;2024-01-25T00:04:12;21.77;;;1.93;;
71769;SDS011;66386;52.122;5.420;2024-01-25T00:06:38;21.80;;;2.00;;
71769;SDS011;66386;52.122;5.420;2024-01-25T00:09:05;13.48;;;1.80;;
71769;SDS011;66386;52.122;5.420;2024-01-25T00:11:33;12.32;;;2.40;;
71769;SDS011;66386;52.122;5.420;2024-01-25T00:14:01;17.75;;;2.08;;
71769;SDS011;66386;52.122;5.420;2024-01-25T00:16:27;14.83;;;2.17;;
71769;SDS011;66386;52.122;5.420;2024-01-25T00:18:54;18.95;;;2.28;;
71769;SDS011;66386;52.122;5.420;2024-01-25T00:21:20;13.48;;;1.45;;
71769;SDS011;66386;52.122;5.420;2024-01-25T00:23:47;17.30;;;1.73;;
71769;SDS011;66386;52.122;5.420;2024-01-25T00:26:13;25.08;;;2.22;;
71769;SDS011;66386;52.122;5.420;2024-01-25T00:28:40;18.37;;;2.60;;
71769;SDS011;66386;52.122;5.420;2024-01-25T00:31:06;20.42;;;2.03;;
71769;SDS011;66386;52.122;5.420;2024-01-25T00:33:33;22.92;;;2.22;;
71769;SDS011;66386;52.122;5.420;2024-01-25T00:36:00;14.50;;;2.42;;
71769;SDS011;66386;52.122;5.420;2024-01-25T00:38:27;17.75;;;1.75;;
71769;SDS011;66386;52.122;5.420;2024-01-25T00:40:54;21.50;;;2.30;;
71769;SDS011;66386;52.122;5.420;2024-01-25T00:43:21;15.73;;;2.40;;
71769;SDS011;66386;52.122;5.420;2024-01-25T00:45:47;17.73;;;2.75;;
71769;SDS011;66386;52.122;5.420;2024-01-25T00:48:15;20.85;;;1.80;;
71769;SDS011;66386;52.122;5.420;2024-01-25T00:50:42;18.75;;;2.35;;
71769;SDS011;66386;52.122;5.420;2024-01-25T00:53:09;13.30;;;1.60;;
71769;SDS011;66386;52.122;5.420;2024-01-25T00:55:36;15.38;;;1.30;;
71769;SDS011;66386;52.122;5.420;2024-01-25T00:58:03;18.58;;;1.60;;
71769;SDS011;66386;52.122;5.420;2024-01-25T01:00:30;11.75;;;1.90;;
71769;SDS011;66386;52.122;5.420;2024-01-25T01:02:57;17.90;;;2.03;;
71769;SDS011;66386;52.122;5.420;2024-01-25T01:05:25;12.40;;;2.00;;
71769;SDS011;66386;52.122;5.420;2024-01-25T01:07:53;19.77;;;2.75;;
71769;SDS011;66386;52.122;5.420;2024-01-25T01:10:19;20.13;;;2.17;;
71769;SDS011;66386;52.122;5.420;2024-01-25T01:12:46;22.38;;;2.15;;
71769;SDS011;66386;52.122;5.420;2024-01-25T01:15:13;15.23;;;2.25;;
71769;SDS011;66386;52.122;5.420;2024-01-25T01:17:40;14.33;;;1.70;;
71769;SDS011;66386;52.122;5.420;2024-01-25T01:20:07;14.60;;;1.88;;
71769;SDS011;66386;52.122;5.420;2024-01-25T01:22:34;23.08;;;2.17;;
71769;SDS011;66386;52.122;5.420;2024-01-25T01:25:00;19.08;;;1.83;;
71769;SDS011;66386;52.122;5.420;2024-01-25T01:27:27;19.70;;;2.13;;
71769;SDS011;66386;52.122;5.420;2024-01-25T01:29:53;16.70;;;2.23;;
71769;SDS011;66386;52.122;5.420;2024-01-25T01:32:20;13.60;;;1.88;;
71769;SDS011;66386;52.122;5.420;2024-01-25T01:34:46;18.58;;;2.20;;
71769;SDS011;66386;52.122;5.420;2024-01-25T01:37:13;23.10;;;2.08;;
71769;SDS011;66386;52.122;5.420;2024-01-25T01:39:40;14.48;;;2.00;;
71769;SDS011;66386;52.122;5.420;2024-01-25T01:42:06;23.63;;;2.60;;
71769;SDS011;66386;52.122;5.420;2024-01-25T01:44:33;16.92;;;2.35;;
71769;SDS011;66386;52.122;5.420;2024-01-25T01:46:59;12.63;;;1.75;;
71769;SDS011;66386;52.122;5.420;2024-01-25T01:49:26;22.85;;;3.20;;
71769;SDS011;66386;52.122;5.420;2024-01-25T01:51:54;21.70;;;2.00;;
71769;SDS011;66386;52.122;5.420;2024-01-25T01:54:21;18.83;;;1.67;;
71769;SDS011;66386;52.122;5.420;2024-01-25T01:56:48;16.13;;;1.70;;
71769;SDS011;66386;52.122;5.420;2024-01-25T01:59:15;14.85;;;1.48;;
71769;SDS011;66386;52.122;5.420;2024-01-25T02:01:42;18.60;;;2.13;;
71769;SDS011;66386;52.122;5.420;2024-01-25T02:04:09;13.35;;;1.70;;
71769;SDS011;66386;52.122;5.420;2024-01-25T02:06:36;24.27;;;2.30;;
71769;SDS011;66386;52.122;5.420;2024-01-25T02:09:03;18.80;;;2.38;;
71769;SDS011;66386;52.122;5.420;2024-01-25T02:11:31;10.85;;;1.40;;
71769;SDS011;66386;52.122;5.420;2024-01-25T02:13:57;14.63;;;1.50;;
71769;SDS011;66386;52.122;5.420;2024-01-25T02:16:24;20.20;;;2.20;;
71769;SDS011;66386;52.122;5.420;2024-01-25T02:18:51;16.17;;;3.27;;
71769;SDS011;66386;52.122;5.420;2024-01-25T02:21:20;11.60;;;1.85;;
71769;SDS011;66386;52.122;5.420;2024-01-25T02:23:47;12.63;;;1.88;;
71769;SDS011;66386;52.122;5.420;2024-01-25T02:28:44;18.73;;;2.40;;
71769;SDS011;66386;52.122;5.420;2024-01-25T02:31:11;21.23;;;1.93;;
71769;SDS011;66386;52.122;5.420;2024-01-25T02:33:37;17.02;;;2.30;;
71769;SDS011;66386;52.122;5.420;2024-01-25T02:36:04;18.63;;;2.10;;
71769;SDS011;66386;52.122;5.420;2024-01-25T02:38:31;14.68;;;1.58;;
71769;SDS011;66386;52.122;5.420;2024-01-25T02:40:58;13.50;;;1.85;;
71769;SDS011;66386;52.122;5.420;2024-01-25T02:43:24;14.80;;;1.87;;
71769;SDS011;66386;52.122;5.420;2024-01-25T02:45:51;17.35;;;2.05;;
71769;SDS011;66386;52.122;5.420;2024-01-25T02:48:17;19.25;;;1.83;;
71769;SDS011;66386;52.122;5.420;2024-01-25T02:50:44;19.30;;;2.15;;
71769;SDS011;66386;52.122;5.420;2024-01-25T02:53:11;19.25;;;1.75;;
71769;SDS011;66386;52.122;5.420;2024-01-25T02:55:38;20.57;;;2.13;;
71769;SDS011;66386;52.122;5.420;2024-01-25T02:58:04;14.15;;;1.70;;
71769;SDS011;66386;52.122;5.420;2024-01-25T03:00:31;10.00;;;1.63;;
71769;SDS011;66386;52.122;5.420;2024-01-25T03:02:58;11.38;;;1.45;;
71769;SDS011;66386;52.122;5.420;2024-01-25T03:05:25;17.23;;;2.03;;
71769;SDS011;66386;52.122;5.420;2024-01-25T03:07:52;14.60;;;2.53;;
71769;SDS011;66386;52.122;5.420;2024-01-25T03:10:18;19.08;;;1.75;;
71769;SDS011;66386;52.122;5.420;2024-01-25T03:12:46;15.25;;;2.00;;
71769;SDS011;66386;52.122;5.420;2024-01-25T03:15:13;14.10;;;2.20;;
71769;SDS011;66386;52.122;5.420;2024-01-25T03:17:41;21.63;;;1.88;;
71769;SDS011;66386;52.122;5.420;2024-01-25T03:20:08;13.30;;;2.60;;
71769;SDS011;66386;52.122;5.420;2024-01-25T03:22:35;22.00;;;2.10;;
71769;SDS011;66386;52.122;5.420;2024-01-25T03:25:02;19.33;;;1.58;;
71769;SDS011;66386;52.122;5.420;2024-01-25T03:27:28;16.50;;;1.63;;
71769;SDS011;66386;52.122;5.420;2024-01-25T03:29:55;12.55;;;1.33;;
71769;SDS011;66386;52.122;5.420;2024-01-25T03:32:21;21.60;;;2.50;;
71769;SDS011;66386;52.122;5.420;2024-01-25T03:34:48;12.07;;;2.20;;
71769;SDS011;66386;52.122;5.420;2024-01-25T03:37:16;12.02;;;1.65;;
71769;SDS011;66386;52.122;5.420;2024-01-25T03:39:43;12.52;;;2.45;;
71769;SDS011;66386;52.122;5.420;2024-01-25T03:42:09;12.43;;;1.25;;
71769;SDS011;66386;52.122;5.420;2024-01-25T03:44:36;15.20;;;1.83;;
71769;SDS011;66386;52.122;5.420;2024-01-25T03:47:02;13.07;;;1.55;;
71769;SDS011;66386;52.122;5.420;2024-01-25T03:49:29;15.25;;;1.75;;
71769;SDS011;66386;52.122;5.420;2024-01-25T03:51:57;15.68;;;1.73;;
71769;SDS011;66386;52.122;5.420;2024-01-25T03:54:23;13.75;;;1.65;;
71769;SDS011;66386;52.122;5.420;2024-01-25T03:56:50;15.93;;;1.83;;
71769;SDS011;66386;52.122;5.420;2024-01-25T03:59:17;8.73;;;1.40;;
71769;SDS011;66386;52.122;5.420;2024-01-25T04:01:44;13.07;;;2.42;;
71769;SDS011;66386;52.122;5.420;2024-01-25T04:04:11;20.83;;;1.85;;
71769;SDS011;66386;52.122;5.420;2024-01-25T04:06:42;15.60;;;1.60;;
71769;SDS011;66386;52.122;5.420;2024-01-25T04:09:10;16.70;;;1.60;;
71769;SDS011;66386;52.122;5.420;2024-01-25T04:11:37;16.63;;;1.98;;
71769;SDS011;66386;52.122;5.420;2024-01-25T04:14:04;12.02;;;1.08;;
71769;SDS011;66386;52.122;5.420;2024-01-25T04:16:31;19.63;;;1.90;;
71769;SDS011;66386;52.122;5.420;2024-01-25T04:18:59;13.27;;;1.98;;
71769;SDS011;66386;52.122;5.420;2024-01-25T04:21:26;10.07;;;1.00;;
71769;SDS011;66386;52.122;5.420;2024-01-25T04:23:53;13.48;;;1.20;;
71769;SDS011;66386;52.122;5.420;2024-01-25T04:26:20;13.15;;;2.10;;
71769;SDS011;66386;52.122;5.420;2024-01-25T04:28:46;15.77;;;2.10;;
71769;SDS011;66386;52.122;5.420;2024-01-25T04:31:13;16.92;;;1.42;;
71769;SDS011;66386;52.122;5.420;2024-01-25T04:33:39;16.70;;;2.37;;
71769;SDS011;66386;52.122;5.420;2024-01-25T04:36:12;18.60;;;1.50;;
71769;SDS011;66386;52.122;5.420;2024-01-25T04:38:38;18.52;;;1.92;;
71769;SDS011;66386;52.122;5.420;2024-01-25T04:41:05;15.10;;;1.60;;
71769;SDS011;66386;52.122;5.420;2024-01-25T04:43:35;13.40;;;2.05;;
71769;SDS011;66386;52.122;5.420;2024-01-25T04:46:03;14.00;;;2.13;;
71769;SDS011;66386;52.122;5.420;2024-01-25T04:48:30;20.38;;;2.30;;
71769;SDS011;66386;52.122;5.420;2024-01-25T04:50:57;15.10;;;1.58;;
71769;SDS011;66386;52.122;5.420;2024-01-25T04:53:25;12.30;;;1.52;;
71769;SDS011;66386;52.122;5.420;2024-01-25T04:55:53;23.40;;;2.20;;
71769;SDS011;66386;52.122;5.420;2024-01-25T04:58:20;10.03;;;1.37;;
71769;SDS011;66386;52.122;5.420;2024-01-25T05:00:46;12.32;;;2.08;;
71769;SDS011;66386;52.122;5.420;2024-01-25T05:03:13;14.70;;;1.92;;
71769;SDS011;66386;52.122;5.420;2024-01-25T05:05:40;17.60;;;2.33;;
71769;SDS011;66386;52.122;5.420;2024-01-25T05:08:07;14.00;;;1.50;;
71769;SDS011;66386;52.122;5.420;2024-01-25T05:10:33;13.90;;;1.57;;
71769;SDS011;66386;52.122;5.420;2024-01-25T05:13:00;17.52;;;1.90;;
71769;SDS011;66386;52.122;5.420;2024-01-25T05:15:27;19.65;;;2.35;;
71769;SDS011;66386;52.122;5.420;2024-01-25T05:17:53;16.67;;;1.73;;
71769;SDS011;66386;52.122;5.420;2024-01-25T05:20:20;13.07;;;1.75;;
71769;SDS011;66386;52.122;5.420;2024-01-25T05:22:46;13.17;;;1.83;;
71769;SDS011;66386;52.122;5.420;2024-01-25T05:25:13;17.23;;;2.10;;
71769;SDS011;66386;52.122;5.420;2024-01-25T05:27:40;11.90;;;1.52;;
71769;SDS011;66386;52.122;5.420;2024-01-25T05:30:06;15.57;;;1.88;;
71769;SDS011;66386;52.122;5.420;2024-01-25T05:32:34;19.20;;;2.50;;
71769;SDS011;66386;52.122;5.420;2024-01-25T05:35:00;16.37;;;1.43;;
71769;SDS011;66386;52.122;5.420;2024-01-25T05:37:27;16.02;;;1.92;;
71769;SDS011;66386;52.122;5.420;2024-01-25T05:39:54;14.73;;;1.58;;
71769;SDS011;66386;52.122;5.420;2024-01-25T05:42:20;18.58;;;2.00;;
71769;SDS011;66386;52.122;5.420;2024-01-25T05:44:47;17.70;;;2.78;;
71769;SDS011;66386;52.122;5.420;2024-01-25T05:47:14;17.03;;;2.80;;
71769;SDS011;66386;52.122;5.420;2024-01-25T05:49:40;21.05;;;2.42;;
71769;SDS011;66386;52.122;5.420;2024-01-25T05:52:07;16.17;;;2.17;;
71769;SDS011;66386;52.122;5.420;2024-01-25T05:54:33;14.77;;;2.08;;
71769;SDS011;66386;52.122;5.420;2024-01-25T05:57:00;21.73;;;3.10;;
71769;SDS011;66386;52.122;5.420;2024-01-25T05:59:27;18.03;;;2.53;;
71769;SDS011;66386;52.122;5.420;2024-01-25T06:01:53;17.80;;;1.98;;
71769;SDS011;66386;52.122;5.420;2024-01-25T06:04:20;19.20;;;2.88;;
71769;SDS011;66386;52.122;5.420;2024-01-25T06:06:47;16.58;;;1.77;;
71769;SDS011;66386;52.122;5.420;2024-01-25T06:09:14;18.55;;;2.03;;
71769;SDS011;66386;52.122;5.420;2024-01-25T06:11:41;19.50;;;2.13;;
71769;SDS011;66386;52.122;5.420;2024-01-25T06:14:08;13.30;;;1.80;;
71769;SDS011;66386;52.122;5.420;2024-01-25T06:16:35;17.48;;;1.58;;
71769;SDS011;66386;52.122;5.420;2024-01-25T06:19:03;22.67;;;2.03;;
71769;SDS011;66386;52.122;5.420;2024-01-25T06:21:30;12.48;;;1.65;;
71769;SDS011;66386;52.122;5.420;2024-01-25T06:23:57;10.27;;;1.93;;
71769;SDS011;66386;52.122;5.420;2024-01-25T06:26:23;22.50;;;1.83;;
71769;SDS011;66386;52.122;5.420;2024-01-25T06:28:50;21.55;;;3.03;;
71769;SDS011;66386;52.122;5.420;2024-01-25T06:31:16;23.58;;;2.08;;
71769;SDS011;66386;52.122;5.420;2024-01-25T06:33:43;15.93;;;2.42;;
71769;SDS011;66386;52.122;5.420;2024-01-25T06:36:13;14.03;;;1.93;;
71769;SDS011;66386;52.122;5.420;2024-01-25T06:38:42;8.88;;;1.70;;
71769;SDS011;66386;52.122;5.420;2024-01-25T06:41:09;17.85;;;2.17;;
71769;SDS011;66386;52.122;5.420;2024-01-25T06:43:35;11.45;;;1.67;;
71769;SDS011;66386;52.122;5.420;2024-01-25T06:46:02;14.43;;;2.00;;
71769;SDS011;66386;52.122;5.420;2024-01-25T06:48:29;17.30;;;2.03;;
71769;SDS011;66386;52.122;5.420;2024-01-25T06:50:56;22.25;;;2.28;;
71769;SDS011;66386;52.122;5.420;2024-01-25T06:53:22;21.25;;;3.40;;
71769;SDS011;66386;52.122;5.420;2024-01-25T06:55:49;16.10;;;1.90;;
71769;SDS011;66386;52.122;5.420;2024-01-25T06:58:15;12.95;;;2.08;;
71769;SDS011;66386;52.122;5.420;2024-01-25T07:00:42;12.23;;;1.57;;
71769;SDS011;66386;52.122;5.420;2024-01-25T07:03:11;13.80;;;2.15;;
71769;SDS011;66386;52.122;5.420;2024-01-25T07:05:38;19.00;;;3.33;;
71769;SDS011;66386;52.122;5.420;2024-01-25T07:08:05;17.75;;;2.05;;
71769;SDS011;66386;52.122;5.420;2024-01-25T07:10:31;21.70;;;2.30;;
71769;SDS011;66386;52.122;5.420;2024-01-25T07:12:58;13.03;;;2.40;;
71769;SDS011;66386;52.122;5.420;2024-01-25T07:15:25;19.08;;;2.65;;
71769;SDS011;66386;52.122;5.420;2024-01-25T07:17:51;14.13;;;2.33;;
71769;SDS011;66386;52.122;5.420;2024-01-25T07:20:18;20.52;;;2.35;;
71769;SDS011;66386;52.122;5.420;2024-01-25T07:22:48;13.68;;;2.60;;
71769;SDS011;66386;52.122;5.420;2024-01-25T07:25:14;17.33;;;3.00;;
71769;SDS011;66386;52.122;5.420;2024-01-25T07:27:45;12.52;;;2.88;;
71769;SDS011;66386;52.122;5.420;2024-01-25T07:30:12;15.75;;;2.97;;
71769;SDS011;66386;52.122;5.420;2024-01-25T07:32:39;18.45;;;2.85;;
71769;SDS011;66386;52.122;5.420;2024-01-25T07:35:08;20.92;;;2.65;;
71769;SDS011;66386;52.122;5.420;2024-01-25T07:37:39;22.67;;;3.47;;
71769;SDS011;66386;52.122;5.420;2024-01-25T07:40:07;15.15;;;2.70;;
71769;SDS011;66386;52.122;5.420;2024-01-25T07:42:35;16.38;;;3.15;;
71769;SDS011;66386;52.122;5.420;2024-01-25T07:45:01;17.25;;;3.35;;
71769;SDS011;66386;52.122;5.420;2024-01-25T07:47:28;15.43;;;3.60;;
71769;SDS011;66386;52.122;5.420;2024-01-25T07:49:56;18.37;;;3.80;;
71769;SDS011;66386;52.122;5.420;2024-01-25T07:52:23;10.35;;;3.50;;
71769;SDS011;66386;52.122;5.420;2024-01-25T07:54:52;19.13;;;3.50;;
71769;SDS011;66386;52.122;5.420;2024-01-25T07:57:20;19.58;;;3.58;;
71769;SDS011;66386;52.122;5.420;2024-01-25T07:59:46;22.65;;;4.00;;
71769;SDS011;66386;52.122;5.420;2024-01-25T08:02:13;23.47;;;3.77;;
71769;SDS011;66386;52.122;5.420;2024-01-25T08:04:42;21.42;;;3.60;;
71769;SDS011;66386;52.122;5.420;2024-01-25T08:07:09;22.85;;;4.90;;
71769;SDS011;66386;52.122;5.420;2024-01-25T08:09:37;17.55;;;3.65;;
71769;SDS011;66386;52.122;5.420;2024-01-25T08:12:03;13.50;;;3.55;;
71769;SDS011;66386;52.122;5.420;2024-01-25T08:14:30;18.33;;;4.50;;
71769;SDS011;66386;52.122;5.420;2024-01-25T08:16:58;14.15;;;4.97;;
71769;SDS011;66386;52.122;5.420;2024-01-25T08:19:24;21.23;;;4.80;;
71769;SDS011;66386;52.122;5.420;2024-01-25T08:21:51;19.05;;;5.35;;
71769;SDS011;66386;52.122;5.420;2024-01-25T08:24:18;24.33;;;6.00;;
71769;SDS011;66386;52.122;5.420;2024-01-25T08:26:44;25.87;;;5.30;;
71769;SDS011;66386;52.122;5.420;2024-01-25T08:29:11;21.48;;;5.40;;
71769;SDS011;66386;52.122;5.420;2024-01-25T08:31:38;25.90;;;4.38;;
71769;SDS011;66386;52.122;5.420;2024-01-25T08:34:04;16.38;;;5.03;;
71769;SDS011;66386;52.122;5.420;2024-01-25T08:36:32;16.15;;;4.50;;
71769;SDS011;66386;52.122;5.420;2024-01-25T08:38:59;22.40;;;4.43;;
71769;SDS011;66386;52.122;5.420;2024-01-25T08:41:25;15.98;;;3.70;;
71769;SDS011;66386;52.122;5.420;2024-01-25T08:43:52;19.23;;;3.55;;
71769;SDS011;66386;52.122;5.420;2024-01-25T08:46:18;19.05;;;3.40;;
71769;SDS011;66386;52.122;5.420;2024-01-25T08:48:45;24.38;;;2.85;;
71769;SDS011;66386;52.122;5.420;2024-01-25T08:51:12;25.30;;;3.60;;
71769;SDS011;66386;52.122;5.420;2024-01-25T08:53:38;19.80;;;3.25;;
71769;SDS011;66386;52.122;5.420;2024-01-25T08:56:05;17.02;;;2.80;;
71769;SDS011;66386;52.122;5.420;2024-01-25T08:58:32;20.00;;;2.28;;
71769;SDS011;66386;52.122;5.420;2024-01-25T09:00:59;18.98;;;2.78;;
71769;SDS011;66386;52.122;5.420;2024-01-25T09:03:26;23.83;;;2.53;;
71769;SDS011;66386;52.122;5.420;2024-01-25T09:05:52;25.60;;;2.95;;
71769;SDS011;66386;52.122;5.420;2024-01-25T09:08:19;18.58;;;3.47;;
71769;SDS011;66386;52.122;5.420;2024-01-25T09:10:46;16.25;;;2.60;;
71769;SDS011;66386;52.122;5.420;2024-01-25T09:13:13;20.58;;;3.22;;
71769;SDS011;66386;52.122;5.420;2024-01-25T09:15:39;12.57;;;2.83;;
71769;SDS011;66386;52.122;5.420;2024-01-25T09:18:06;16.88;;;2.33;;
71769;SDS011;66386;52.122;5.420;2024-01-25T09:20:33;26.58;;;2.97;;
71769;SDS011;66386;52.122;5.420;2024-01-25T09:22:59;15.77;;;2.42;;
71769;SDS011;66386;52.122;5.420;2024-01-25T09:25:26;15.82;;;2.90;;
71769;SDS011;66386;52.122;5.420;2024-01-25T09:27:53;17.10;;;2.80;;
71769;SDS011;66386;52.122;5.420;2024-01-25T09:30:22;14.38;;;2.33;;
71769;SDS011;66386;52.122;5.420;2024-01-25T09:32:49;21.15;;;2.78;;
71769;SDS011;66386;52.122;5.420;2024-01-25T09:35:16;20.63;;;3.65;;
71769;SDS011;66386;52.122;5.420;2024-01-25T09:37:42;19.25;;;3.00;;
71769;SDS011;66386;52.122;5.420;2024-01-25T09:40:09;13.60;;;2.57;;
71769;SDS011;66386;52.122;5.420;2024-01-25T09:42:37;17.52;;;2.63;;
71769;SDS011;66386;52.122;5.420;2024-01-25T09:45:06;15.90;;;2.92;;
71769;SDS011;66386;52.122;5.420;2024-01-25T09:47:33;19.73;;;2.75;;
71769;SDS011;66386;52.122;5.420;2024-01-25T09:50:00;18.25;;;2.70;;
71769;SDS011;66386;52.122;5.420;2024-01-25T09:52:27;14.17;;;2.40;;
71769;SDS011;66386;52.122;5.420;2024-01-25T09:54:57;19.13;;;3.10;;
71769;SDS011;66386;52.122;5.420;2024-01-25T09:57:24;16.23;;;2.55;;
71769;SDS011;66386;52.122;5.420;2024-01-25T09:59:54;18.35;;;3.15;;
71769;SDS011;66386;52.122;5.420;2024-01-25T10:02:23;17.05;;;3.05;;
71769;SDS011;66386;52.122;5.420;2024-01-25T10:04:51;20.53;;;3.00;;
71769;SDS011;66386;52.122;5.420;2024-01-25T10:07:40;21.00;;;2.95;;
71769;SDS011;66386;52.122;5.420;2024-01-25T10:10:08;20.63;;;2.78;;
71769;SDS011;66386;52.122;5.420;2024-01-25T10:12:42;15.02;;;2.70;;
71769;SDS011;66386;52.122;5.420;2024-01-25T10:15:10;15.85;;;2.53;;
71769;SDS011;66386;52.122;5.420;2024-01-25T10:17:38;20.53;;;3.50;;
71769;SDS011;66386;52.122;5.420;2024-01-25T10:20:24;23.00;;;3.25;;
71769;SDS011;66386;52.122;5.420;2024-01-25T10:22:56;18.55;;;2.80;;
71769;SDS011;66386;52.122;5.420;2024-01-25T10:25:26;19.23;;;3.47;;
71769;SDS011;66386;52.122;5.420;2024-01-25T10:27:53;16.63;;;2.85;;
71769;SDS011;66386;52.122;5.420;2024-01-25T10:30:20;20.67;;;3.00;;
71769;SDS011;66386;52.122;5.420;2024-01-25T10:32:48;20.67;;;2.63;;
71769;SDS011;66386;52.122;5.420;2024-01-25T10:35:17;23.30;;;3.13;;
71769;SDS011;66386;52.122;5.420;2024-01-25T10:37:49;19.40;;;3.20;;
71769;SDS011;66386;52.122;5.420;2024-01-25T10:40:16;17.20;;;3.55;;
71769;SDS011;66386;52.122;5.420;2024-01-25T10:42:46;23.67;;;3.20;;
71769;SDS011;66386;52.122;5.420;2024-01-25T10:45:13;19.25;;;2.83;;
71769;SDS011;66386;52.122;5.420;2024-01-25T10:47:40;18.33;;;3.45;;
71769;SDS011;66386;52.122;5.420;2024-01-25T10:50:11;16.75;;;3.10;;
71769;SDS011;66386;52.122;5.420;2024-01-25T10:52:40;17.83;;;3.38;;
71769;SDS011;66386;52.122;5.420;2024-01-25T10:55:08;19.70;;;3.33;;
71769;SDS011;66386;52.122;5.420;2024-01-25T10:57:42;16.45;;;3.42;;
71769;SDS011;66386;52.122;5.420;2024-01-25T11:00:11;18.75;;;3.47;;
71769;SDS011;66386;52.122;5.420;2024-01-25T11:02:41;20.45;;;3.22;;
71769;SDS011;66386;52.122;5.420;2024-01-25T11:05:17;14.55;;;2.60;;
71769;SDS011;66386;52.122;5.420;2024-01-25T11:07:48;20.77;;;3.93;;
71769;SDS011;66386;52.122;5.420;2024-01-25T11:10:20;18.23;;;3.42;;
71769;SDS011;66386;52.122;5.420;2024-01-25T11:15:22;21.30;;;3.30;;
71769;SDS011;66386;52.122;5.420;2024-01-25T11:17:55;21.83;;;3.08;;
71769;SDS011;66386;52.122;5.420;2024-01-25T11:20:23;16.13;;;2.97;;
71769;SDS011;66386;52.122;5.420;2024-01-25T11:23:03;27.17;;;4.50;;
71769;SDS011;66386;52.122;5.420;2024-01-25T11:25:31;20.67;;;3.45;;
71769;SDS011;66386;52.122;5.420;2024-01-25T11:28:04;16.98;;;2.95;;
71769;SDS011;66386;52.122;5.420;2024-01-25T11:30:32;28.40;;;4.10;;
71769;SDS011;66386;52.122;5.420;2024-01-25T11:33:03;20.17;;;4.00;;
71769;SDS011;66386;52.122;5.420;2024-01-25T11:35:32;20.90;;;3.35;;
71769;SDS011;66386;52.122;5.420;2024-01-25T11:37:59;19.95;;;3.78;;
71769;SDS011;66386;52.122;5.420;2024-01-25T11:40:26;18.13;;;3.42;;
71769;SDS011;66386;52.122;5.420;2024-01-25T11:42:54;21.98;;;3.78;;
71769;SDS011;66386;52.122;5.420;2024-01-25T11:45:21;23.03;;;3.60;;
71769;SDS011;66386;52.122;5.420;2024-01-25T11:47:49;15.75;;;3.88;;
71769;SDS011;66386;52.122;5.420;2024-01-25T11:50:16;20.88;;;3.08;;
71769;SDS011;66386;52.122;5.420;2024-01-25T11:52:43;18.30;;;3.30;;
71769;SDS011;66386;52.122;5.420;2024-01-25T11:55:10;18.75;;;3.35;;
71769;SDS011;66386;52.122;5.420;2024-01-25T11:57:37;16.57;;;3.93;;
71769;SDS011;66386;52.122;5.420;2024-01-25T12:00:08;24.85;;;3.38;;
71769;SDS011;66386;52.122;5.420;2024-01-25T12:02:36;17.15;;;3.65;;
71769;SDS011;66386;52.122;5.420;2024-01-25T12:05:04;21.75;;;4.55;;
71769;SDS011;66386;52.122;5.420;2024-01-25T12:07:32;16.88;;;3.58;;
71769;SDS011;66386;52.122;5.420;2024-01-25T12:10:15;24.92;;;4.38;;
71769;SDS011;66386;52.122;5.420;2024-01-25T12:12:43;18.17;;;2.97;;
71769;SDS011;66386;52.122;5.420;2024-01-25T12:15:10;16.17;;;3.10;;
71769;SDS011;66386;52.122;5.420;2024-01-25T12:17:37;21.55;;;3.92;;
71769;SDS011;66386;52.122;5.420;2024-01-25T12:20:06;25.48;;;3.42;;
71769;SDS011;66386;52.122;5.420;2024-01-25T12:22:38;18.83;;;3.88;;
71769;SDS011;66386;52.122;5.420;2024-01-25T12:25:08;16.00;;;3.63;;
71769;SDS011;66386;52.122;5.420;2024-01-25T12:27:37;22.70;;;4.60;;
71769;SDS011;66386;52.122;5.420;2024-01-25T12:30:06;18.40;;;4.68;;
71769;SDS011;66386;52.122;5.420;2024-01-25T12:32:35;22.30;;;5.13;;
71769;SDS011;66386;52.122;5.420;2024-01-25T12:35:01;16.92;;;4.30;;
71769;SDS011;66386;52.122;5.420;2024-01-25T12:37:29;24.13;;;3.63;;
71769;SDS011;66386;52.122;5.420;2024-01-25T12:39:56;19.00;;;3.67;;
71769;SDS011;66386;52.122;5.420;2024-01-25T12:42:23;21.38;;;4.30;;
71769;SDS011;66386;52.122;5.420;2024-01-25T12:44:51;18.98;;;3.47;;
71769;SDS011;66386;52.122;5.420;2024-01-25T12:47:23;23.70;;;5.07;;
71769;SDS011;66386;52.122;5.420;2024-01-25T12:49:50;18.90;;;3.73;;
71769;SDS011;66386;52.122;5.420;2024-01-25T12:52:16;17.65;;;4.53;;
71769;SDS011;66386;52.122;5.420;2024-01-25T12:54:43;23.85;;;5.30;;
71769;SDS011;66386;52.122;5.420;2024-01-25T12:57:10;27.80;;;5.55;;
71769;SDS011;66386;52.122;5.420;2024-01-25T12:59:37;27.15;;;5.30;;
71769;SDS011;66386;52.122;5.420;2024-01-25T13:02:05;20.33;;;4.53;;
71769;SDS011;66386;52.122;5.420;2024-01-25T13:04:33;23.13;;;4.90;;
71769;SDS011;66386;52.122;5.420;2024-01-25T13:07:00;14.77;;;4.20;;
71769;SDS011;66386;52.122;5.420;2024-01-25T13:09:27;15.05;;;4.07;;
71769;SDS011;66386;52.122;5.420;2024-01-25T13:11:55;19.67;;;5.38;;
71769;SDS011;66386;52.122;5.420;2024-01-25T13:14:23;19.07;;;4.80;;
71769;SDS011;66386;52.122;5.420;2024-01-25T13:16:50;19.92;;;4.43;;
71769;SDS011;66386;52.122;5.420;2024-01-25T13:19:17;29.60;;;4.68;;
71769;SDS011;66386;52.122;5.420;2024-01-25T13:21:44;25.38;;;4.43;;
71769;SDS011;66386;52.122;5.420;2024-01-25T13:24:11;21.67;;;5.38;;
71769;SDS011;66386;52.122;5.420;2024-01-25T13:26:37;21.57;;;4.30;;
71769;SDS011;66386;52.122;5.420;2024-01-25T13:29:04;15.25;;;4.15;;
71769;SDS011;66386;52.122;5.420;2024-01-25T13:31:30;18.88;;;4.18;;
71769;SDS011;66386;52.122;5.420;2024-01-25T13:33:57;19.17;;;5.05;;
71769;SDS011;66386;52.122;5.420;2024-01-25T13:36:24;26.33;;;5.40;;
71769;SDS011;66386;52.122;5.420;2024-01-25T13:38:51;20.27;;;4.97;;
71769;SDS011;66386;52.122;5.420;2024-01-25T13:41:17;22.40;;;4.82;;
71769;SDS011;66386;52.122;5.420;2024-01-25T13:43:44;23.10;;;4.68;;
71769;SDS011;66386;52.122;5.420;2024-01-25T13:46:10;22.20;;;5.88;;
71769;SDS011;66386;52.122;5.420;2024-01-25T13:48:37;32.03;;;6.20;;
71769;SDS011;66386;52.122;5.420;2024-01-25T13:51:03;21.03;;;5.17;;
71769;SDS011;66386;52.122;5.420;2024-01-25T13:53:30;24.92;;;5.50;;
71769;SDS011;66386;52.122;5.420;2024-01-25T13:55:57;23.17;;;5.45;;
71769;SDS011;66386;52.122;5.420;2024-01-25T13:58:24;25.17;;;5.75;;
71769;SDS011;66386;52.122;5.420;2024-01-25T14:00:50;19.15;;;5.55;;
71769;SDS011;66386;52.122;5.420;2024-01-25T14:03:17;21.40;;;4.73;;
71769;SDS011;66386;52.122;5.420;2024-01-25T14:05:43;30.30;;;6.10;;
71769;SDS011;66386;52.122;5.420;2024-01-25T14:08:10;31.05;;;6.28;;
71769;SDS011;66386;52.122;5.420;2024-01-25T14:10:37;25.27;;;5.20;;
71769;SDS011;66386;52.122;5.420;2024-01-25T14:13:04;20.23;;;5.88;;
71769;SDS011;66386;52.122;5.420;2024-01-25T14:15:30;25.03;;;5.33;;
71769;SDS011;66386;52.122;5.420;2024-01-25T14:17:58;22.00;;;6.20;;
71769;SDS011;66386;52.122;5.420;2024-01-25T14:20:25;30.63;;;6.05;;
71769;SDS011;66386;52.122;5.420;2024-01-25T14:22:52;24.15;;;5.80;;
71769;SDS011;66386;52.122;5.420;2024-01-25T14:25:19;20.65;;;5.35;;
71769;SDS011;66386;52.122;5.420;2024-01-25T14:27:46;24.60;;;5.43;;
71769;SDS011;66386;52.122;5.420;2024-01-25T14:30:15;18.35;;;6.05;;
71769;SDS011;66386;52.122;5.420;2024-01-25T14:32:42;25.55;;;5.90;;
71769;SDS011;66386;52.122;5.420;2024-01-25T14:35:09;24.17;;;5.78;;
71769;SDS011;66386;52.122;5.420;2024-01-25T14:37:35;25.77;;;7.00;;
71769;SDS011;66386;52.122;5.420;2024-01-25T14:40:02;19.90;;;5.73;;
71769;SDS011;66386;52.122;5.420;2024-01-25T14:42:49;18.90;;;6.07;;